createdAt,value
2022-12-25T00:00:05.566Z,101833.72
2022-12-25T00:02:32.663Z,101831.94
2022-12-25T00:04:59.716Z,101824.88
2022-12-25T00:07:26.969Z,101825.84
2022-12-25T00:09:53.968Z,101824.94
2022-12-25T00:12:22.374Z,101819.53
2022-12-25T00:14:49.373Z,101825.84
2022-12-25T00:17:16.295Z,101830.34
2022-12-25T00:19:43.226Z,101830.44
2022-12-25T00:22:10.111Z,101826.97
2022-12-25T00:24:37.151Z,101814.50
2022-12-25T00:27:04.241Z,101804.69
2022-12-25T00:29:31.177Z,101809.94
2022-12-25T00:31:58.195Z,101808.16
2022-12-25T00:34:25.213Z,101814.31
2022-12-25T00:36:52.892Z,101810.81
2022-12-25T00:39:19.900Z,101814.44
2022-12-25T00:42:05.307Z,101812.59
2022-12-25T00:44:32.454Z,101817.84
2022-12-25T00:46:59.555Z,101820.53
2022-12-25T00:49:26.719Z,101821.47
2022-12-25T00:51:54.301Z,101815.38
2022-12-25T00:54:21.529Z,101825.06
2022-12-25T00:56:48.742Z,101825.94
2022-12-25T00:59:16.136Z,101829.38
2022-12-25T01:01:43.355Z,101827.66
2022-12-25T01:04:12.297Z,101828.47
2022-12-25T01:06:40.348Z,101830.28
2022-12-25T01:09:25.891Z,101830.34
2022-12-25T01:11:53.705Z,101827.84
2022-12-25T01:14:20.902Z,101839.38
2022-12-25T01:16:47.957Z,101834.16
2022-12-25T01:19:15.005Z,101842.09
2022-12-25T01:21:42.499Z,101837.78
2022-12-25T01:24:09.506Z,101852.03
2022-12-25T01:26:36.439Z,101854.75
2022-12-25T01:29:03.805Z,101849.31
2022-12-25T01:31:31.790Z,101852.88
2022-12-25T01:33:59.331Z,101859.03
2022-12-25T01:36:27.170Z,101859.97
2022-12-25T01:38:55.084Z,101861.59
2022-12-25T01:41:24.833Z,101868.75
2022-12-25T01:44:06.059Z,101875.00
2022-12-25T01:46:34.645Z,101875.00
2022-12-25T01:49:17.314Z,101883.81
2022-12-25T01:51:54.119Z,101881.97
2022-12-25T01:54:26.306Z,101876.63
2022-12-25T01:56:58.366Z,101886.38
2022-12-25T01:59:26.650Z,101874.84
2022-12-25T02:01:54.149Z,101882.94
2022-12-25T02:04:40.313Z,101876.84
2022-12-25T02:07:19.782Z,101878.69
2022-12-25T02:09:47.540Z,101878.69
2022-12-25T02:12:26.843Z,101881.44
2022-12-25T02:15:04.996Z,101883.16
2022-12-25T02:18:03.759Z,101881.25
2022-12-25T02:20:33.615Z,101879.56
2022-12-25T02:23:05.672Z,101883.16
2022-12-25T02:26:06.387Z,101881.44
2022-12-25T02:28:46.131Z,101882.22
2022-12-25T02:31:38.620Z,101872.38
2022-12-25T02:34:31.841Z,101881.25
2022-12-25T02:37:11.541Z,101883.03
2022-12-25T02:40:00.244Z,101890.00
2022-12-25T02:43:05.300Z,101884.63
2022-12-25T02:45:59.495Z,101879.41
2022-12-25T02:48:51.557Z,101875.81
2022-12-25T02:51:40.686Z,101881.97
2022-12-25T02:54:32.281Z,101887.34
2022-12-25T02:57:21.024Z,101882.09
2022-12-25T03:00:09.571Z,101886.47
2022-12-25T03:03:00.266Z,101876.03
2022-12-25T03:05:48.172Z,101885.81
2022-12-25T03:08:27.511Z,101884.78
2022-12-25T03:11:24.555Z,101886.47
2022-12-25T03:14:19.038Z,101877.78
2022-12-25T03:16:52.966Z,101881.31
2022-12-25T03:19:48.383Z,101876.91
2022-12-25T03:22:47.482Z,101876.03
2022-12-25T03:25:36.706Z,101878.69
2022-12-25T03:28:06.196Z,101880.47
2022-12-25T03:31:06.851Z,101881.22
2022-12-25T03:34:11.378Z,101877.69
2022-12-25T03:37:38.068Z,101877.63
2022-12-25T03:40:53.366Z,101882.31
2022-12-25T03:44:09.649Z,101875.25
2022-12-25T03:47:05.117Z,101876.16
2022-12-25T03:50:27.816Z,101880.56
2022-12-25T03:53:15.793Z,101879.75
2022-12-25T03:56:03.060Z,101879.69
2022-12-25T03:58:49.201Z,101881.56
2022-12-25T04:01:36.175Z,101875.34
2022-12-25T04:04:22.103Z,101878.88
2022-12-25T04:07:07.424Z,101881.47
2022-12-25T04:09:52.998Z,101893.91
2022-12-25T04:12:41.313Z,101886.81
2022-12-25T04:15:27.909Z,101885.16
2022-12-25T04:18:13.164Z,101879.84
2022-12-25T04:20:58.621Z,101885.16
2022-12-25T04:23:44.006Z,101886.03
2022-12-25T04:26:29.364Z,101897.59
2022-12-25T04:29:14.741Z,101894.94
2022-12-25T04:32:00.450Z,101894.13
2022-12-25T04:34:45.849Z,101896.81
2022-12-25T04:37:12.858Z,101889.59
2022-12-25T04:39:40.544Z,101891.41
2022-12-25T04:42:07.434Z,101897.59
2022-12-25T04:44:34.409Z,101901.16
2022-12-25T04:47:07.482Z,101900.22
2022-12-25T04:49:37.801Z,101898.41
2022-12-25T04:52:05.035Z,101902.06
2022-12-25T04:54:32.099Z,101902.06
2022-12-25T04:56:59.712Z,101898.53
2022-12-25T04:59:27.045Z,101896.69
2022-12-25T05:01:54.057Z,101896.69
2022-12-25T05:04:21.222Z,101895.69
2022-12-25T05:06:48.407Z,101903.84
2022-12-25T05:09:15.434Z,101900.34
2022-12-25T05:11:42.389Z,101904.81
2022-12-25T05:14:09.517Z,101905.66
2022-12-25T05:16:40.653Z,101904.81
2022-12-25T05:19:07.625Z,101907.50
2022-12-25T05:21:34.536Z,101905.72
2022-12-25T05:24:01.617Z,101905.78
2022-12-25T05:26:28.644Z,101907.59
2022-12-25T05:28:55.739Z,101904.06
2022-12-25T05:31:22.729Z,101910.25
2022-12-25T05:33:51.737Z,101905.81
2022-12-25T05:36:19.580Z,101903.22
2022-12-25T05:38:46.590Z,101912.09
2022-12-25T05:41:13.490Z,101901.50
2022-12-25T05:43:40.386Z,101905.97
2022-12-25T05:46:09.667Z,101904.09
2022-12-25T05:48:38.306Z,101908.56
2022-12-25T05:51:13.809Z,101903.16
2022-12-25T05:53:43.100Z,101905.81
2022-12-25T05:56:10.779Z,101911.97
2022-12-25T05:58:40.147Z,101907.50
2022-12-25T06:01:22.982Z,101910.16
2022-12-25T06:03:50.867Z,101919.13
2022-12-25T06:06:18.429Z,101920.06
2022-12-25T06:08:46.127Z,101913.78
2022-12-25T06:11:15.044Z,101916.50
2022-12-25T06:13:42.722Z,101914.75
2022-12-25T06:16:12.293Z,101916.50
2022-12-25T06:18:47.536Z,101931.59
2022-12-25T06:21:16.024Z,101926.25
2022-12-25T06:23:44.001Z,101922.66
2022-12-25T06:26:16.094Z,101924.44
2022-12-25T06:28:43.787Z,101931.53
2022-12-25T06:31:24.571Z,101933.31
2022-12-25T06:33:51.928Z,101930.72
2022-12-25T06:36:25.872Z,101924.44
2022-12-25T06:38:53.872Z,101927.16
2022-12-25T06:41:27.557Z,101931.69
2022-12-25T06:44:01.105Z,101934.41
2022-12-25T06:46:30.199Z,101933.50
2022-12-25T06:48:59.040Z,101932.63
2022-12-25T06:51:29.596Z,101939.78
2022-12-25T06:53:57.758Z,101938.09
2022-12-25T06:56:27.898Z,101941.69
2022-12-25T06:58:58.853Z,101939.91
2022-12-25T07:01:31.629Z,101946.94
2022-12-25T07:04:02.847Z,101953.16
2022-12-25T07:06:30.160Z,101957.63
2022-12-25T07:08:57.164Z,101950.56
2022-12-25T07:11:24.515Z,101956.72
2022-12-25T07:13:51.625Z,101969.97
2022-12-25T07:16:19.027Z,101963.75
2022-12-25T07:18:46.084Z,101960.19
2022-12-25T07:21:19.722Z,101960.97
2022-12-25T07:23:49.912Z,101964.50
2022-12-25T07:26:20.064Z,101968.94
2022-12-25T07:28:47.053Z,101964.41
2022-12-25T07:31:16.749Z,101973.31
2022-12-25T07:33:44.413Z,101975.03
2022-12-25T07:36:13.349Z,101974.09
2022-12-25T07:38:43.620Z,101977.63
2022-12-25T07:41:13.039Z,101981.19
2022-12-25T07:43:40.575Z,101982.97
2022-12-25T07:46:08.423Z,101984.78
2022-12-25T07:48:36.341Z,101979.41
2022-12-25T07:51:07.675Z,101985.53
2022-12-25T07:53:36.926Z,101990.09
2022-12-25T07:56:12.647Z,101991.06
2022-12-25T07:58:40.860Z,101996.41
2022-12-25T08:01:13.501Z,101998.19
2022-12-25T08:03:40.668Z,102000.78
2022-12-25T08:06:10.854Z,102006.94
2022-12-25T08:08:40.252Z,102012.22
2022-12-25T08:11:08.569Z,102024.59
2022-12-25T08:13:36.384Z,102025.41
2022-12-25T08:16:08.669Z,102022.69
2022-12-25T08:18:37.144Z,102033.25
2022-12-25T08:21:13.357Z,102032.28
2022-12-25T08:23:43.859Z,102040.22
2022-12-25T08:26:21.469Z,102040.22
2022-12-25T08:28:49.344Z,102052.66
2022-12-25T08:31:28.497Z,102054.38
2022-12-25T08:33:58.670Z,102057.06
2022-12-25T08:36:27.378Z,102051.72
2022-12-25T08:39:00.435Z,102061.44
2022-12-25T08:41:30.345Z,102067.66
2022-12-25T08:43:57.777Z,102067.72
2022-12-25T08:46:24.898Z,102068.56
2022-12-25T08:48:52.080Z,102070.28
2022-12-25T08:51:23.477Z,102071.16
2022-12-25T08:53:52.895Z,102071.16
2022-12-25T08:56:20.897Z,102076.47
2022-12-25T08:58:48.327Z,102080.88
2022-12-25T09:01:15.715Z,102080.78
2022-12-25T09:03:43.688Z,102083.47
2022-12-25T09:06:15.154Z,102085.22
2022-12-25T09:08:48.695Z,102087.84
2022-12-25T09:11:19.118Z,102088.69
2022-12-25T09:13:47.679Z,102083.25
2022-12-25T09:16:20.227Z,102089.47
2022-12-25T09:18:48.156Z,102085.88
2022-12-25T09:21:16.669Z,102086.75
2022-12-25T09:23:44.358Z,102086.66
2022-12-25T09:26:14.602Z,102095.53
2022-12-25T09:28:50.245Z,102094.56
2022-12-25T09:31:18.132Z,102098.03
2022-12-25T09:33:45.319Z,102106.00
2022-12-25T09:36:12.303Z,102097.97
2022-12-25T09:38:39.744Z,102101.53
2022-12-25T09:41:35.581Z,102105.94
2022-12-25T09:44:31.059Z,102101.47
2022-12-25T09:47:24.842Z,102095.25
2022-12-25T09:50:08.455Z,102095.25
2022-12-25T09:52:53.041Z,102092.53
2022-12-25T09:55:24.393Z,102101.34
2022-12-25T09:57:59.109Z,102102.25
2022-12-25T10:00:40.125Z,102104.84
2022-12-25T10:03:16.765Z,102103.03
2022-12-25T10:06:27.767Z,102105.81
2022-12-25T10:09:06.829Z,102104.00
2022-12-25T10:12:24.091Z,102103.97
2022-12-25T10:14:53.835Z,102104.84
2022-12-25T10:17:39.270Z,102099.59
2022-12-25T10:20:48.584Z,102098.69
2022-12-25T10:23:25.592Z,102108.44
2022-12-25T10:25:53.967Z,102106.59
2022-12-25T10:28:35.288Z,102105.69
2022-12-25T10:31:18.550Z,102097.69
2022-12-25T10:33:47.241Z,102093.22
2022-12-25T10:36:19.607Z,102097.59
2022-12-25T10:38:47.616Z,102087.78
2022-12-25T10:41:29.503Z,102093.94
2022-12-25T10:43:58.305Z,102094.78
2022-12-25T10:46:29.205Z,102088.44
2022-12-25T10:49:00.419Z,102093.63
2022-12-25T10:51:36.449Z,102090.00
2022-12-25T10:54:29.004Z,102085.53
2022-12-25T10:57:14.543Z,102081.97
2022-12-25T10:59:56.588Z,102087.19
2022-12-25T11:02:30.247Z,102083.63
2022-12-25T11:05:11.084Z,102072.91
2022-12-25T11:07:55.374Z,102071.94
2022-12-25T11:10:25.669Z,102081.59
2022-12-25T11:12:53.847Z,102073.47
2022-12-25T11:15:39.797Z,102073.44
2022-12-25T11:18:27.255Z,102070.69
2022-12-25T11:21:26.340Z,102069.81
2022-12-25T11:24:17.265Z,102063.63
2022-12-25T11:26:57.665Z,102060.00
2022-12-25T11:29:51.534Z,102061.69
2022-12-25T11:32:30.477Z,102059.91
2022-12-25T11:34:59.278Z,102062.44
2022-12-25T11:37:48.354Z,102066.81
2022-12-25T11:40:25.669Z,102072.16
2022-12-25T11:43:13.065Z,102056.94
2022-12-25T11:46:16.452Z,102063.28
2022-12-25T11:48:56.059Z,102057.97
2022-12-25T11:51:33.596Z,102057.06
2022-12-25T11:54:28.228Z,102055.19
2022-12-25T11:56:59.649Z,102052.59
2022-12-25T11:59:50.790Z,102043.59
2022-12-25T12:02:44.651Z,102042.66
2022-12-25T12:05:23.765Z,102036.38
2022-12-25T12:07:57.792Z,102034.69
2022-12-25T12:10:48.195Z,102029.44
2022-12-25T12:13:27.881Z,102035.69
2022-12-25T12:15:55.085Z,102028.53
2022-12-25T12:18:28.348Z,102026.75
2022-12-25T12:20:59.477Z,102023.13
2022-12-25T12:23:29.413Z,102022.16
2022-12-25T12:25:57.567Z,102030.13
2022-12-25T12:28:42.345Z,102021.94
2022-12-25T12:31:09.812Z,102023.72
2022-12-25T12:33:51.508Z,102027.19
2022-12-25T12:36:34.400Z,102020.06
2022-12-25T12:39:02.593Z,102024.50
2022-12-25T12:41:59.623Z,102026.28
2022-12-25T12:44:36.526Z,102029.00
2022-12-25T12:47:03.603Z,102021.03
2022-12-25T12:49:33.650Z,102032.47
2022-12-25T12:52:30.161Z,102032.53
2022-12-25T12:55:04.372Z,102022.78
2022-12-25T12:57:39.350Z,102018.50
2022-12-25T13:00:19.197Z,102022.84
2022-12-25T13:03:37.123Z,102010.34
2022-12-25T13:06:19.608Z,102012.19
2022-12-25T13:09:04.798Z,102007.72
2022-12-25T13:11:44.404Z,102015.75
2022-12-25T13:14:22.972Z,102012.09
2022-12-25T13:16:53.523Z,102020.22
2022-12-25T13:19:23.864Z,102008.59
2022-12-25T13:22:04.725Z,102014.00
2022-12-25T13:24:35.683Z,102024.63
2022-12-25T13:27:22.692Z,102024.50
2022-12-25T13:29:49.976Z,102025.41
2022-12-25T13:32:32.751Z,102011.09
2022-12-25T13:35:00.858Z,102016.38
2022-12-25T13:37:31.560Z,102018.28
2022-12-25T13:40:01.848Z,102027.19
2022-12-25T13:42:32.966Z,102032.47
2022-12-25T13:45:13.623Z,102035.16
2022-12-25T13:47:43.451Z,102030.78
2022-12-25T13:50:15.781Z,102029.00
2022-12-25T13:52:43.032Z,102035.28
2022-12-25T13:55:23.810Z,102030.75
2022-12-25T13:57:59.183Z,102029.94
2022-12-25T14:00:37.790Z,102031.78
2022-12-25T14:03:08.504Z,102032.63
2022-12-25T14:05:43.379Z,102045.09
2022-12-25T14:08:23.981Z,102045.03
2022-12-25T14:10:53.972Z,102048.53
2022-12-25T14:13:27.346Z,102039.56
2022-12-25T14:15:56.559Z,102043.19
2022-12-25T14:18:25.864Z,102039.63
2022-12-25T14:21:02.313Z,102052.88
2022-12-25T14:23:47.113Z,102041.31
2022-12-25T14:26:22.934Z,102048.63
2022-12-25T14:28:54.620Z,102048.63
2022-12-25T14:31:23.657Z,102044.16
2022-12-25T14:33:52.901Z,102059.22
2022-12-25T14:36:20.406Z,102053.78
2022-12-25T14:39:01.384Z,102056.53
2022-12-25T14:41:39.008Z,102059.25
2022-12-25T14:44:55.351Z,102064.59
2022-12-25T14:47:22.393Z,102066.47
2022-12-25T14:49:49.644Z,102078.91
2022-12-25T14:52:38.177Z,102071.75
2022-12-25T14:55:22.077Z,102071.75
2022-12-25T14:57:55.788Z,102067.25
2022-12-25T15:00:39.854Z,102064.56
2022-12-25T15:03:21.019Z,102061.91
2022-12-25T15:06:02.507Z,102070.00
2022-12-25T15:08:33.114Z,102069.91
2022-12-25T15:11:02.604Z,102061.81
2022-12-25T15:13:31.612Z,102059.25
2022-12-25T15:16:04.599Z,102054.84
2022-12-25T15:18:38.891Z,102056.56
2022-12-25T15:21:07.042Z,102062.03
2022-12-25T15:23:34.170Z,102066.47
2022-12-25T15:26:01.334Z,102063.81
2022-12-25T15:28:28.456Z,102058.47
2022-12-25T15:30:55.743Z,102063.81
2022-12-25T15:33:22.934Z,102070.00
2022-12-25T15:35:50.025Z,102065.66
2022-12-25T15:38:17.064Z,102067.38
2022-12-25T15:40:44.217Z,102071.84
2022-12-25T15:43:39.348Z,102068.28
2022-12-25T15:46:02.287Z,102077.19
2022-12-25T15:48:29.259Z,102078.06
2022-12-25T15:50:56.207Z,102075.41
2022-12-25T15:53:23.236Z,102070.94
2022-12-25T15:55:50.379Z,102069.16
2022-12-25T15:58:17.632Z,102067.34
2022-12-25T16:00:45.153Z,102062.00
2022-12-25T16:03:13.173Z,102069.16
2022-12-25T16:05:40.632Z,102066.47
2022-12-25T16:08:09.375Z,102069.16
2022-12-25T16:10:39.010Z,102070.00
2022-12-25T16:13:07.485Z,102070.00
2022-12-25T16:15:34.638Z,102066.47
2022-12-25T16:18:01.640Z,102056.69
2022-12-25T16:20:28.900Z,102062.03
2022-12-25T16:22:55.892Z,102059.38
2022-12-25T16:25:24.160Z,102061.16
2022-12-25T16:27:51.298Z,102054.97
2022-12-25T16:30:18.803Z,102063.84
2022-12-25T16:32:50.429Z,102062.94
2022-12-25T16:35:18.173Z,102062.97
2022-12-25T16:37:45.326Z,102074.59
2022-12-25T16:40:12.611Z,102083.56
2022-12-25T16:42:39.713Z,102086.22
2022-12-25T16:45:07.577Z,102089.81
2022-12-25T16:47:34.481Z,102082.66
2022-12-25T16:50:01.549Z,102086.28
2022-12-25T16:52:28.465Z,102090.75
2022-12-25T16:54:55.562Z,102092.59
2022-12-25T16:57:22.899Z,102091.72
2022-12-25T16:59:50.768Z,102100.63
2022-12-25T17:02:20.600Z,102094.41
2022-12-25T17:04:48.244Z,102093.47
2022-12-25T17:07:17.973Z,102092.59
2022-12-25T17:09:48.684Z,102098.00
2022-12-25T17:12:18.304Z,102101.56
2022-12-25T17:14:45.511Z,102102.50
2022-12-25T17:17:12.524Z,102097.19
2022-12-25T17:19:39.599Z,102106.13
2022-12-25T17:22:07.394Z,102105.19
2022-12-25T17:24:36.342Z,102096.31
2022-12-25T17:27:04.148Z,102086.50
2022-12-25T17:29:32.041Z,102083.81
2022-12-25T17:31:59.064Z,102086.50
2022-12-25T17:34:26.141Z,102084.75
2022-12-25T17:36:54.734Z,102099.06
2022-12-25T17:39:21.789Z,102102.59
2022-12-25T17:41:51.881Z,102096.41
2022-12-25T17:44:21.313Z,102098.22
2022-12-25T17:46:49.835Z,102105.31
2022-12-25T17:49:20.826Z,102105.38
2022-12-25T17:51:49.048Z,102114.25
2022-12-25T17:54:16.087Z,102106.28
2022-12-25T17:56:43.019Z,102111.63
2022-12-25T17:59:18.224Z,102108.09
2022-12-25T18:01:47.171Z,102112.66
2022-12-25T18:04:14.751Z,102107.22
2022-12-25T18:06:42.094Z,102114.38
2022-12-25T18:09:11.254Z,102110.84
2022-12-25T18:11:42.312Z,102107.31
2022-12-25T18:14:14.253Z,102107.31
2022-12-25T18:16:43.909Z,102108.16
2022-12-25T18:19:12.664Z,102109.97
2022-12-25T18:21:39.877Z,102114.44
2022-12-25T18:24:08.543Z,102119.78
2022-12-25T18:26:36.647Z,102120.66
2022-12-25T18:29:04.414Z,102133.16
2022-12-25T18:31:31.435Z,102126.09
2022-12-25T18:33:59.865Z,102120.78
2022-12-25T18:36:29.214Z,102121.63
2022-12-25T18:38:57.393Z,102119.91
2022-12-25T18:41:25.412Z,102107.44
2022-12-25T18:43:55.624Z,102111.88
2022-12-25T18:46:27.630Z,102110.00
2022-12-25T18:48:56.757Z,102111.88
2022-12-25T18:51:24.256Z,102114.56
2022-12-25T18:53:51.614Z,102125.28
2022-12-25T18:56:20.397Z,102122.59
2022-12-25T18:58:48.075Z,102114.66
2022-12-25T19:01:22.500Z,102120.88
2022-12-25T19:03:51.575Z,102123.66
2022-12-25T19:06:27.599Z,102118.34
2022-12-25T19:08:55.850Z,102120.22
2022-12-25T19:11:23.289Z,102121.09
2022-12-25T19:13:50.404Z,102122.03
2022-12-25T19:16:18.024Z,102125.56
2022-12-25T19:18:45.713Z,102122.03
2022-12-25T19:21:12.796Z,102121.09
2022-12-25T19:23:40.606Z,102123.69
2022-12-25T19:26:10.199Z,102116.72
2022-12-25T19:28:38.573Z,102120.34
2022-12-25T19:31:08.440Z,102120.34
2022-12-25T19:33:40.958Z,102123.88
2022-12-25T19:36:12.246Z,102121.19
2022-12-25T19:38:39.739Z,102121.19
2022-12-25T19:41:09.178Z,102113.13
2022-12-25T19:43:39.110Z,102108.78
2022-12-25T19:46:08.381Z,102110.53
2022-12-25T19:48:35.420Z,102107.88
2022-12-25T19:51:02.506Z,102114.16
2022-12-25T19:53:31.613Z,102112.31
2022-12-25T19:56:03.160Z,102107.88
2022-12-25T19:58:30.345Z,102115.09
2022-12-25T20:01:07.645Z,102118.63
2022-12-25T20:03:41.750Z,102122.25
2022-12-25T20:06:20.106Z,102123.16
2022-12-25T20:08:48.540Z,102126.75
2022-12-25T20:11:16.929Z,102122.28
2022-12-25T20:13:44.484Z,102125.81
2022-12-25T20:16:11.951Z,102129.44
2022-12-25T20:18:39.631Z,102122.34
2022-12-25T20:21:12.076Z,102111.59
2022-12-25T20:23:39.023Z,102124.06
2022-12-25T20:26:06.691Z,102121.41
2022-12-25T20:28:36.233Z,102124.91
2022-12-25T20:31:21.468Z,102135.63
2022-12-25T20:33:49.936Z,102132.09
2022-12-25T20:36:18.890Z,102130.41
2022-12-25T20:38:45.868Z,102134.94
2022-12-25T20:41:30.143Z,102134.00
2022-12-25T20:43:58.318Z,102137.72
2022-12-25T20:46:26.547Z,102151.88
2022-12-25T20:48:54.272Z,102155.38
2022-12-25T20:51:24.991Z,102149.09
2022-12-25T20:53:52.720Z,102141.16
2022-12-25T20:56:23.868Z,102148.19
2022-12-25T20:58:58.788Z,102138.31
2022-12-25T21:01:27.263Z,102142.84
2022-12-25T21:03:55.142Z,102138.38
2022-12-25T21:06:23.622Z,102131.22
2022-12-25T21:08:50.539Z,102134.78
2022-12-25T21:11:18.148Z,102131.22
2022-12-25T21:13:46.163Z,102136.50
2022-12-25T21:16:18.590Z,102139.16
2022-12-25T21:18:47.724Z,102142.88
2022-12-25T21:21:15.696Z,102135.75
2022-12-25T21:23:42.719Z,102133.06
2022-12-25T21:26:31.830Z,102136.69
2022-12-25T21:29:02.273Z,102135.81
2022-12-25T21:31:30.871Z,102134.00
2022-12-25T21:33:58.055Z,102146.44
2022-12-25T21:36:27.586Z,102151.75
2022-12-25T21:38:58.249Z,102145.56
2022-12-25T21:41:27.566Z,102145.56
2022-12-25T21:43:55.535Z,102158.88
2022-12-25T21:46:23.119Z,102158.88
2022-12-25T21:48:50.375Z,102151.72
2022-12-25T21:51:56.197Z,102158.81
2022-12-25T21:54:23.820Z,102156.13
2022-12-25T21:56:51.279Z,102151.72
2022-12-25T21:59:22.792Z,102152.59
2022-12-25T22:01:53.240Z,102161.47
2022-12-25T22:04:23.655Z,102165.94
2022-12-25T22:07:10.058Z,102163.28
2022-12-25T22:09:37.522Z,102168.63
2022-12-25T22:12:24.424Z,102165.94
2022-12-25T22:15:02.481Z,102165.13
2022-12-25T22:18:00.828Z,102162.44
2022-12-25T22:20:36.054Z,102169.59
2022-12-25T22:23:03.604Z,102174.06
2022-12-25T22:25:30.614Z,102166.91
2022-12-25T22:27:58.243Z,102164.31
2022-12-25T22:30:27.904Z,102166.06
2022-12-25T22:32:55.777Z,102166.06
2022-12-25T22:35:23.622Z,102174.94
2022-12-25T22:37:50.774Z,102176.72
2022-12-25T22:40:20.360Z,102171.41
2022-12-25T22:42:48.222Z,102174.06
2022-12-25T22:45:15.637Z,102171.44
2022-12-25T22:47:42.759Z,102175.00
2022-12-25T22:50:15.089Z,102178.53
2022-12-25T22:52:42.660Z,102174.06
2022-12-25T22:55:10.453Z,102175.00
2022-12-25T22:57:37.547Z,102179.41
2022-12-25T23:00:08.991Z,102174.94
2022-12-25T23:02:36.554Z,102171.50
2022-12-25T23:05:04.600Z,102166.09
2022-12-25T23:07:31.608Z,102160.88
2022-12-25T23:09:58.851Z,102165.28
2022-12-25T23:12:44.875Z,102159.09
2022-12-25T23:15:12.083Z,102164.41
2022-12-25T23:17:57.872Z,102162.63
2022-12-25T23:20:43.282Z,102175.03
2022-12-25T23:23:34.664Z,102173.22
2022-12-25T23:26:08.908Z,102170.56
2022-12-25T23:29:00.293Z,102171.44
2022-12-25T23:31:35.484Z,102169.66
2022-12-25T23:34:04.919Z,102169.66
2022-12-25T23:36:35.608Z,102166.09
2022-12-25T23:39:09.508Z,102161.69
2022-12-25T23:41:39.313Z,102164.34
2022-12-25T23:44:07.871Z,102156.31
2022-12-25T23:46:41.881Z,102166.09
2022-12-25T23:49:21.953Z,102167.88
2022-12-25T23:51:49.537Z,102167.03
2022-12-25T23:54:20.889Z,102170.56
2022-12-25T23:56:49.399Z,102169.66
2022-12-25T23:59:17.742Z,102168.75
